Time;durP1;ratioP1;P1;durP2;ratioP2;P2;SDS_P1;SDS_P2;PMS_P1;PMS_P2;Temp;Humidity;BMP_temperature;BMP_pressure;BME280_temperature;BME280_humidity;BME280_pressure;Samples;Min_cycle;Max_cycle;Signal;HPM_P1;HPM_P2
2022/07/27 00:01:15;;;;;;;8.77;5.68;;;717.70;1920.00;;;;;;4935591;29;20036;-81
2022/07/27 00:03:42;;;;;;;9.68;6.28;;;717.70;1920.00;;;;;;4935174;29;20461;-79
2022/07/27 00:06:08;;;;;;;10.75;6.18;;;717.70;1920.00;;;;;;4935233;29;20024;-78
2022/07/27 00:08:34;;;;;;;12.63;5.97;;;742.40;1945.60;;;;;;4934998;29;20027;-79
2022/07/27 00:11:00;;;;;;;10.07;6.22;;;717.70;1945.60;;;;;;4919201;29;20032;-79
2022/07/27 00:13:28;;;;;;;12.13;6.78;;;717.50;1996.80;;;;;;4935250;29;20036;-80
2022/07/27 00:16:08;;;;;;;12.63;6.57;;;717.40;1996.80;;;;;;4935125;29;20516;-79
2022/07/27 00:18:42;;;;;;;11.27;6.20;;;717.40;1996.80;;;;;;4934572;29;20457;-80
2022/07/27 00:21:08;;;;;;;8.35;6.38;;;717.50;1996.80;;;;;;4935345;29;20024;-81
2022/07/27 00:23:36;;;;;;;9.63;6.68;;;716.80;2022.40;;;;;;4934795;29;20036;-79
2022/07/27 00:26:02;;;;;;;9.95;6.00;;;717.40;2022.40;;;;;;4935242;29;20032;-80
2022/07/27 00:28:28;;;;;;;12.48;6.68;;;717.40;2022.40;;;;;;4935073;29;20229;-79
2022/07/27 00:30:54;;;;;;;11.18;5.68;;;717.50;2022.40;;;;;;4934974;29;20489;-79
2022/07/27 00:33:19;;;;;;;14.27;7.43;;;717.40;2022.40;;;;;;4935008;29;20405;-79
2022/07/27 00:35:45;;;;;;;14.27;6.28;;;717.30;2048.00;;;;;;4935098;29;20031;-78
2022/07/27 00:38:13;;;;;;;14.15;6.75;;;717.20;2048.00;;;;;;4934766;29;20405;-79
2022/07/27 00:40:40;;;;;;;6.82;5.82;;;717.30;2073.60;;;;;;4935113;29;20049;-78
2022/07/27 00:43:06;;;;;;;14.50;6.70;;;717.20;2048.00;;;;;;4934764;29;20474;-79
2022/07/27 00:45:32;;;;;;;8.68;6.60;;;717.10;2073.60;;;;;;4934216;29;20047;-78
2022/07/27 00:48:00;;;;;;;12.65;6.68;;;717.10;2073.60;;;;;;4935031;29;20034;-79
2022/07/27 00:50:29;;;;;;;13.85;6.00;;;717.10;2073.60;;;;;;4935070;29;20028;-80
2022/07/27 00:52:54;;;;;;;13.65;6.07;;;717.10;2073.60;;;;;;4934746;29;20079;-80
2022/07/27 00:55:20;;;;;;;7.28;5.78;;;717.20;2048.00;;;;;;4934966;29;20421;-79
2022/07/27 00:57:46;;;;;;;9.93;6.10;;;717.10;2048.00;;;;;;4935012;29;20036;-80
2022/07/27 01:00:13;;;;;;;9.05;6.00;;;717.10;2048.00;;;;;;4934689;29;20023;-80
2022/07/27 01:02:39;;;;;;;9.77;6.05;;;692.10;2048.00;;;;;;4936092;29;20032;-81
2022/07/27 01:05:05;;;;;;;13.93;5.90;;;717.10;2073.60;;;;;;4934735;29;20111;-81
2022/07/27 01:07:31;;;;;;;17.05;6.28;;;716.90;2073.60;;;;;;4934935;29;20106;-81
2022/07/27 01:09:58;;;;;;;12.27;6.18;;;716.90;2073.60;;;;;;4934574;29;20032;-81
2022/07/27 01:12:27;;;;;;;8.73;5.93;;;716.90;2073.60;;;;;;4934597;29;20453;-79
2022/07/27 01:14:55;;;;;;;10.60;5.75;;;716.90;2099.20;;;;;;4918978;29;20027;-79
2022/07/27 01:17:21;;;;;;;10.07;5.82;;;716.80;2099.20;;;;;;4934850;29;20023;-80
2022/07/27 01:19:51;;;;;;;10.20;6.82;;;742.50;2124.80;;;;;;4934564;29;20035;-79
2022/07/27 01:22:23;;;;;;;12.55;6.13;;;692.10;2099.20;;;;;;4936245;29;20046;-80
2022/07/27 01:24:55;;;;;;;;;;;692.10;2099.20;;;;;;4935084;29;20429;-79
2022/07/27 01:27:24;;;;;;;8.13;5.82;;;692.10;2099.20;;;;;;4934297;29;20379;-80
2022/07/27 01:29:55;;;;;;;11.02;6.38;;;692.00;2124.80;;;;;;4937057;29;20036;-79
2022/07/27 01:32:21;;;;;;;9.07;6.18;;;692.00;2099.20;;;;;;4938355;29;20474;-79
2022/07/27 01:34:47;;;;;;;10.30;6.15;;;691.90;2124.80;;;;;;4938012;29;20031;-80
2022/07/27 01:37:13;;;;;;;11.13;6.20;;;691.90;2124.80;;;;;;4938159;29;20032;-80
2022/07/27 01:39:38;;;;;;;12.68;6.97;;;691.90;2124.80;;;;;;4938262;29;20038;-80
2022/07/27 01:42:05;;;;;;;11.70;6.53;;;691.80;2150.40;;;;;;4937898;29;20122;-79
2022/07/27 01:44:30;;;;;;;10.45;6.68;;;691.70;2176.00;;;;;;4937820;29;20434;-81
2022/07/27 01:46:56;;;;;;;16.30;7.22;;;691.70;2176.00;;;;;;4938126;29;20040;-80
2022/07/27 01:49:22;;;;;;;12.38;5.88;;;691.60;2201.60;;;;;;4937817;29;20027;-80
2022/07/27 01:51:48;;;;;;;13.25;6.60;;;691.50;2201.60;;;;;;4937936;29;20083;-80
2022/07/27 01:54:14;;;;;;;16.25;7.20;;;691.40;2201.60;;;;;;4937498;29;20473;-80
2022/07/27 01:56:40;;;;;;;11.23;6.18;;;691.40;2227.20;;;;;;4937781;29;20032;-79
2022/07/27 01:59:06;;;;;;;7.75;5.93;;;691.40;2201.60;;;;;;4921927;29;20039;-79
2022/07/27 02:01:31;;;;;;;12.50;6.65;;;691.50;2201.60;;;;;;4938581;29;20027;-79
2022/07/27 02:03:57;;;;;;;11.63;6.65;;;691.40;2227.20;;;;;;4937643;29;20044;-79
2022/07/27 02:06:23;;;;;;;14.15;6.10;;;691.40;2227.20;;;;;;4937665;29;20454;-79
2022/07/27 02:08:49;;;;;;;13.57;6.47;;;691.40;2252.80;;;;;;4937304;29;20034;-80
2022/07/27 02:13:59;;;;;;;12.57;6.20;;;691.40;2252.80;;;;;;4938698;29;20521;-80
2022/07/27 02:16:25;;;;;;;15.55;6.97;;;691.40;2252.80;;;;;;4937287;29;20062;-80
2022/07/27 02:18:51;;;;;;;12.13;6.65;;;691.40;2252.80;;;;;;4937376;29;20469;-80
2022/07/27 02:21:17;;;;;;;11.07;7.18;;;691.30;2252.80;;;;;;4937654;29;20083;-80
2022/07/27 02:23:43;;;;;;;10.65;7.05;;;691.30;2278.40;;;;;;4937147;29;20466;-80
2022/07/27 02:26:09;;;;;;;11.57;6.18;;;691.30;2278.40;;;;;;4937269;29;20033;-80
2022/07/27 02:28:36;;;;;;;11.15;7.43;;;691.20;2278.40;;;;;;4937312;29;20646;-80
2022/07/27 02:31:02;;;;;;;10.25;6.35;;;666.50;2304.00;;;;;;4936996;29;20028;-80
2022/07/27 02:33:28;;;;;;;10.40;6.75;;;666.50;2329.60;;;;;;4937318;29;20493;-79
2022/07/27 02:35:54;;;;;;;9.73;7.00;;;666.50;2329.60;;;;;;4943205;29;20012;-79
2022/07/27 02:38:19;;;;;;;8.13;6.32;;;666.50;2329.60;;;;;;4959098;29;20018;-79
2022/07/27 02:40:45;;;;;;;13.25;6.53;;;666.50;2329.60;;;;;;4936168;29;20027;-81
2022/07/27 02:43:12;;;;;;;11.50;7.57;;;666.40;2329.60;;;;;;4937171;29;20061;-80
2022/07/27 02:45:38;;;;;;;12.40;6.75;;;666.50;2329.60;;;;;;4933725;29;20462;-80
2022/07/27 02:48:04;;;;;;;11.68;6.32;;;666.50;2329.60;;;;;;4919402;29;20074;-80
2022/07/27 02:50:30;;;;;;;10.60;6.35;;;666.40;2329.60;;;;;;4917584;29;20044;-79
2022/07/27 02:52:56;;;;;;;9.13;6.70;;;666.40;2355.20;;;;;;4933790;29;20044;-80
2022/07/27 02:55:23;;;;;;;10.02;6.50;;;666.40;2355.20;;;;;;4918842;29;20032;-80
2022/07/27 02:57:49;;;;;;;9.32;6.95;;;666.30;2355.20;;;;;;4933215;29;20119;-80
2022/07/27 03:00:15;;;;;;;9.20;6.78;;;666.30;2380.80;;;;;;4933262;29;20116;-80
2022/07/27 03:02:42;;;;;;;7.68;6.60;;;666.30;2380.80;;;;;;4933519;29;20091;-80
2022/07/27 03:05:10;;;;;;;10.40;7.85;;;666.30;2406.40;;;;;;4918798;29;20027;-80
2022/07/27 03:07:43;;;;;;;10.20;7.00;;;666.20;2406.40;;;;;;4933397;29;20419;-80
2022/07/27 03:10:09;;;;;;;11.30;6.40;;;666.30;2406.40;;;;;;4918998;29;20028;-80
2022/07/27 03:12:45;;;;;;;10.38;6.75;;;666.40;2406.40;;;;;;4933078;29;20028;-80
2022/07/27 03:15:11;;;;;;;8.68;6.40;;;666.30;2406.40;;;;;;4933311;29;20028;-79
2022/07/27 03:17:39;;;;;;;8.20;6.05;;;666.40;2406.40;;;;;;4933386;29;20032;-80
2022/07/27 03:20:32;;;;;;;13.60;7.40;;;666.30;2432.00;;;;;;4932958;29;20043;-80
2022/07/27 03:23:00;;;;;;;;;;;666.30;2406.40;;;;;;4933518;29;20044;-80
2022/07/27 03:25:44;;;;;;;9.55;7.63;;;666.30;2406.40;;;;;;4932864;29;19918;-80
2022/07/27 03:28:13;;;;;;;9.80;6.68;;;666.30;2432.00;;;;;;4932989;29;20056;-80
2022/07/27 03:30:42;;;;;;;10.20;7.22;;;666.30;2432.00;;;;;;4933000;29;20387;-80
2022/07/27 03:33:46;;;;;;;12.02;7.40;;;666.30;2432.00;;;;;;4932360;29;20123;-80
2022/07/27 03:36:31;;;;;;;10.45;6.82;;;666.20;2432.00;;;;;;4916962;29;20024;-80
2022/07/27 03:38:57;;;;;;;9.68;6.78;;;666.20;2432.00;;;;;;4916651;29;20060;-81
2022/07/27 03:41:22;;;;;;;13.82;6.97;;;666.00;2432.00;;;;;;4932664;29;20064;-81
2022/07/27 03:43:51;;;;;;;11.05;7.07;;;666.00;2432.00;;;;;;4917864;29;20473;-80
2022/07/27 03:46:19;;;;;;;10.93;7.25;;;666.00;2432.00;;;;;;4931832;29;20052;-80
2022/07/27 03:48:47;;;;;;;9.80;6.95;;;666.00;2432.00;;;;;;4932444;29;20032;-80
2022/07/27 03:51:13;;;;;;;14.07;7.15;;;666.00;2432.00;;;;;;4932506;29;20471;-82
2022/07/27 03:53:39;;;;;;;10.65;6.97;;;665.90;2432.00;;;;;;4932224;29;20040;-81
2022/07/27 03:56:05;;;;;;;11.45;7.22;;;665.60;2432.00;;;;;;4932466;29;20462;-80
2022/07/27 03:58:30;;;;;;;12.00;7.32;;;665.90;2432.00;;;;;;4932468;29;20052;-80
2022/07/27 04:00:56;;;;;;;14.60;6.65;;;665.60;2432.00;;;;;;4917485;29;20087;-78
2022/07/27 04:03:22;;;;;;;8.75;7.15;;;665.70;2432.00;;;;;;4932294;29;20032;-78
2022/07/27 04:05:48;;;;;;;11.77;6.80;;;665.60;2432.00;;;;;;4932275;29;20031;-77
2022/07/27 04:08:16;;;;;;;15.30;8.15;;;640.90;2432.00;;;;;;4915819;29;20039;-78
2022/07/27 04:10:42;;;;;;;10.73;7.85;;;665.60;2432.00;;;;;;4916480;29;20040;-78
2022/07/27 04:13:09;;;;;;;13.82;7.38;;;640.90;2432.00;;;;;;4916218;29;20051;-78
2022/07/27 04:15:35;;;;;;;12.32;7.40;;;640.90;2432.00;;;;;;4916093;29;20149;-78
2022/07/27 04:18:04;;;;;;;16.05;7.57;;;640.90;2432.00;;;;;;4916307;29;20119;-79
2022/07/27 04:20:32;;;;;;;16.15;7.93;;;665.60;2432.00;;;;;;4916193;29;20167;-78
2022/07/27 04:23:01;;;;;;;10.77;7.32;;;665.70;2432.00;;;;;;4915860;29;20060;-78
2022/07/27 04:25:27;;;;;;;17.02;8.52;;;665.70;2432.00;;;;;;4916121;29;20028;-78
2022/07/27 04:28:02;;;;;;;17.52;8.05;;;665.90;2432.00;;;;;;4916115;29;20035;-79
2022/07/27 04:30:28;;;;;;;9.75;6.63;;;665.80;2432.00;;;;;;4916605;29;20127;-79
2022/07/27 04:32:54;;;;;;;9.45;6.88;;;665.80;2432.00;;;;;;4916020;29;20092;-79
2022/07/27 04:35:20;;;;;;;10.95;7.07;;;665.90;2432.00;;;;;;4916010;29;20126;-79
2022/07/27 04:38:55;;;;;;;;;;;;;;;;;;;;;
2022/07/27 04:48:13;;;;;;;9.52;8.20;;;665.90;2432.00;;;;;;4896231;29;20033;-79
2022/07/27 04:50:43;;;;;;;9.95;7.10;;;665.90;2432.00;;;;;;4880367;29;20123;-79
2022/07/27 04:53:45;;;;;;;;;;;;;;;;;;;;;
2022/07/27 04:57:00;;;;;;;13.10;7.43;;;665.90;2432.00;;;;;;4916617;29;20050;-79
2022/07/27 05:03:37;;;;;;;;;;;666.10;2432.00;;;;;;4916937;29;20405;-80
2022/07/27 05:05:47;;;;;;;15.85;8.30;;;666.20;2432.00;;;;;;4916983;29;19995;-79
2022/07/27 05:08:13;;;;;;;11.18;7.78;;;666.00;2432.00;;;;;;4920685;29;20028;-79
2022/07/27 05:10:41;;;;;;;12.27;7.95;;;666.10;2432.00;;;;;;4920522;29;20535;-79
2022/07/27 05:13:23;;;;;;;11.85;8.32;;;666.10;2432.00;;;;;;4919501;29;20544;-78
2022/07/27 05:16:07;;;;;;;9.90;7.43;;;666.20;2432.00;;;;;;4918911;29;20028;-79
2022/07/27 05:18:44;;;;;;;9.10;8.00;;;666.30;2432.00;;;;;;4919133;29;20706;-79
2022/07/27 05:25:32;;;;;;;10.38;8.32;;;666.30;2432.00;;;;;;4879209;29;20099;-79
2022/07/27 05:39:51;;;;;;;;;;;;;;;;;;;;;
2022/07/27 05:45:55;;;;;;;9.75;8.50;;;666.50;2432.00;;;;;;4917243;29;20066;-80
2022/07/27 05:48:26;;;;;;;12.05;8.75;;;691.20;2432.00;;;;;;4917127;29;20402;-79
2022/07/27 05:50:52;;;;;;;13.40;8.02;;;666.50;2432.00;;;;;;4918775;29;20032;-80
2022/07/27 05:53:18;;;;;;;12.68;8.48;;;691.20;2432.00;;;;;;4918578;29;20376;-80
2022/07/27 05:55:54;;;;;;;14.63;9.02;;;691.20;2432.00;;;;;;4918715;29;20363;-79
2022/07/27 05:58:23;;;;;;;10.25;8.95;;;691.30;2432.00;;;;;;4918854;29;20032;-80
2022/07/27 06:00:49;;;;;;;9.50;8.50;;;691.30;2432.00;;;;;;4918442;29;20056;-81
2022/07/27 06:03:14;;;;;;;13.85;9.63;;;691.20;2432.00;;;;;;4918687;29;20091;-81
2022/07/27 06:05:40;;;;;;;10.70;8.82;;;691.20;2432.00;;;;;;4918624;29;20067;-80
2022/07/27 06:08:11;;;;;;;11.48;8.93;;;691.20;2432.00;;;;;;4918505;29;20039;-81
2022/07/27 06:10:43;;;;;;;11.52;8.95;;;691.20;2432.00;;;;;;4918610;29;20028;-79
2022/07/27 06:13:10;;;;;;;12.13;8.93;;;691.40;2432.00;;;;;;4918190;29;20091;-79
2022/07/27 06:15:37;;;;;;;11.40;9.45;;;691.30;2432.00;;;;;;4917262;29;20032;-81
2022/07/27 06:18:07;;;;;;;9.95;7.88;;;691.40;2432.00;;;;;;4918425;29;20382;-80
2022/07/27 06:21:00;;;;;;;11.57;9.15;;;691.40;2432.00;;;;;;4918065;29;20036;-79
2022/07/27 06:23:27;;;;;;;17.42;9.18;;;691.60;2432.00;;;;;;4917947;29;20040;-80
2022/07/27 06:25:53;;;;;;;11.98;8.55;;;691.60;2432.00;;;;;;4918234;29;20073;-80
2022/07/27 06:28:18;;;;;;;10.02;8.88;;;691.70;2432.00;;;;;;4918001;29;20052;-81
2022/07/27 06:30:45;;;;;;;12.45;9.23;;;691.70;2432.00;;;;;;4918141;29;20107;-79
2022/07/27 06:33:14;;;;;;;12.18;9.43;;;691.60;2432.00;;;;;;4918053;29;20479;-80
2022/07/27 06:35:41;;;;;;;9.93;7.95;;;691.80;2432.00;;;;;;4917933;29;20028;-81
2022/07/27 06:38:08;;;;;;;12.52;8.73;;;691.90;2432.00;;;;;;4918096;29;20083;-81
2022/07/27 06:40:34;;;;;;;9.75;8.70;;;691.80;2432.00;;;;;;4918214;29;20103;-82
2022/07/27 06:43:00;;;;;;;11.02;9.07;;;691.80;2432.00;;;;;;4917789;29;20036;-82
2022/07/27 06:45:26;;;;;;;10.55;9.13;;;691.90;2432.00;;;;;;4923720;29;20060;-80
2022/07/27 06:47:52;;;;;;;10.82;9.27;;;691.90;2432.00;;;;;;4933917;29;20054;-78
2022/07/27 06:50:21;;;;;;;10.05;8.98;;;692.10;2432.00;;;;;;4933581;29;20510;-79
2022/07/27 06:52:47;;;;;;;9.80;8.73;;;716.90;2432.00;;;;;;4933505;29;20083;-79
2022/07/27 06:55:13;;;;;;;10.35;9.20;;;717.10;2432.00;;;;;;4933399;29;20028;-79
2022/07/27 06:57:50;;;;;;;10.82;9.52;;;717.10;2432.00;;;;;;4933359;29;20076;-79
2022/07/27 07:00:16;;;;;;;11.27;10.07;;;717.20;2432.00;;;;;;4933305;29;20024;-80
2022/07/27 07:02:57;;;;;;;11.02;9.93;;;717.10;2432.00;;;;;;4917108;29;20031;-80
2022/07/27 07:05:31;;;;;;;11.20;9.77;;;717.10;2432.00;;;;;;4933321;29;20036;-80
2022/07/27 07:08:10;;;;;;;;;;;;;;;;;;;;;
2022/07/27 07:10:42;;;;;;;10.32;9.23;;;;;;;;;;4918143;29;20024;-79
2022/07/27 07:13:10;;;;;;;11.70;9.20;;;717.70;2380.80;;;;;;4932959;29;20087;-78
2022/07/27 07:15:42;;;;;;;11.63;9.75;;;717.70;2380.80;;;;;;4918288;29;20490;-79
2022/07/27 07:18:13;;;;;;;;;;;717.60;2380.80;;;;;;4933421;29;20028;-79
2022/07/27 07:20:39;;;;;;;13.57;9.60;;;717.60;2380.80;;;;;;4915730;29;20005;-77
2022/07/27 07:23:05;;;;;;;11.20;9.60;;;717.70;2380.80;;;;;;4932422;29;20513;-77
2022/07/27 07:25:32;;;;;;;10.55;9.32;;;717.70;2355.20;;;;;;4917857;29;20473;-77
2022/07/27 07:27:59;;;;;;;10.63;9.52;;;717.70;2355.20;;;;;;4932426;29;20028;-78
2022/07/27 07:30:25;;;;;;;11.73;10.13;;;742.50;2355.20;;;;;;4916611;29;20026;-80
2022/07/27 07:32:51;;;;;;;13.57;10.00;;;742.40;2355.20;;;;;;4939009;29;20035;-79
2022/07/27 07:35:17;;;;;;;10.13;8.93;;;742.70;2329.60;;;;;;4947731;29;20028;-80
2022/07/27 07:37:43;;;;;;;11.63;9.75;;;742.60;2329.60;;;;;;4942051;29;20031;-80
2022/07/27 07:40:29;;;;;;;13.25;10.02;;;742.60;2329.60;;;;;;4932391;29;20032;-81
2022/07/27 07:43:00;;;;;;;11.98;9.60;;;742.60;2329.60;;;;;;4932954;29;20458;-81
2022/07/27 07:45:28;;;;;;;9.70;8.65;;;742.80;2329.60;;;;;;4932200;29;20063;-80
2022/07/27 07:51:02;;;;;;;14.80;9.52;;;742.60;2304.00;;;;;;4897266;29;20036;-80
2022/07/27 07:53:28;;;;;;;11.38;8.73;;;742.80;2329.60;;;;;;4931262;29;20497;-80
2022/07/27 07:55:55;;;;;;;11.95;9.20;;;743.00;2304.00;;;;;;4917614;29;20020;-80
2022/07/27 07:58:24;;;;;;;10.40;9.27;;;743.00;2278.40;;;;;;4931414;29;20023;-79
2022/07/27 08:00:53;;;;;;;13.20;8.52;;;743.20;2278.40;;;;;;4931577;29;20028;-80
2022/07/27 08:03:19;;;;;;;9.23;8.32;;;743.30;2252.80;;;;;;4931747;29;20043;-80
2022/07/27 08:05:45;;;;;;;10.00;9.00;;;768.10;2227.20;;;;;;4931897;29;20409;-79
2022/07/27 08:08:17;;;;;;;9.60;8.45;;;768.20;2227.20;;;;;;4916694;29;20032;-79
2022/07/27 08:10:49;;;;;;;10.95;8.55;;;768.10;2227.20;;;;;;4932718;29;20422;-80
2022/07/27 08:13:20;;;;;;;9.70;8.52;;;768.30;2201.60;;;;;;4915432;29;20509;-81
2022/07/27 08:15:48;;;;;;;10.60;8.90;;;768.30;2227.20;;;;;;4917392;29;20028;-80
2022/07/27 08:18:14;;;;;;;12.20;9.05;;;768.40;2201.60;;;;;;4931842;29;20036;-80
2022/07/27 08:20:40;;;;;;;10.43;8.80;;;768.50;2201.60;;;;;;4931795;29;20031;-80
2022/07/27 08:23:06;;;;;;;16.35;11.45;;;768.50;2227.20;;;;;;4916171;29;20050;-81
2022/07/27 08:25:32;;;;;;;11.38;10.15;;;768.60;2201.60;;;;;;4931986;29;20118;-80
2022/07/27 08:27:59;;;;;;;18.98;10.02;;;768.60;2201.60;;;;;;4931432;29;20111;-78
2022/07/27 08:30:34;;;;;;;10.20;7.97;;;793.60;2227.20;;;;;;4931880;29;20502;-80
2022/07/27 08:33:01;;;;;;;12.55;8.43;;;793.70;2176.00;;;;;;4931463;29;20095;-79
2022/07/27 08:35:28;;;;;;;14.38;10.75;;;794.10;2176.00;;;;;;4931958;29;20088;-81
2022/07/27 08:37:55;;;;;;;9.95;8.30;;;768.90;2124.80;;;;;;4931526;29;20024;-80
2022/07/27 08:40:22;;;;;;;9.18;8.15;;;794.00;2150.40;;;;;;4931295;29;20032;-80
2022/07/27 08:42:48;;;;;;;9.48;8.48;;;793.70;2124.80;;;;;;4931841;29;20060;-80
2022/07/27 08:45:16;;;;;;;11.73;8.80;;;768.70;2124.80;;;;;;4931568;29;20055;-80
2022/07/27 08:47:44;;;;;;;12.50;8.35;;;768.60;2150.40;;;;;;4915785;29;20024;-80
2022/07/27 08:51:11;;;;;;;;;;;;;;;;;;;;;
2022/07/27 08:54:22;;;;;;;12.00;8.90;;;768.90;2176.00;;;;;;4893313;29;20048;-81
2022/07/27 09:00:24;;;;;;;11.88;9.25;;;793.70;2176.00;;;;;;4860894;29;20033;-80
2022/07/27 09:02:50;;;;;;;8.77;7.85;;;794.00;2150.40;;;;;;4931287;29;20028;-79
2022/07/27 09:05:20;;;;;;;9.65;8.75;;;794.50;2099.20;;;;;;4931530;29;20039;-78
2022/07/27 09:07:46;;;;;;;11.40;8.65;;;819.30;2073.60;;;;;;4931605;29;20033;-79
2022/07/27 09:10:31;;;;;;;11.43;8.68;;;819.30;2048.00;;;;;;4915434;29;20025;-79
2022/07/27 09:12:57;;;;;;;10.73;7.88;;;819.50;2048.00;;;;;;4930530;29;20040;-80
2022/07/27 09:15:24;;;;;;;10.15;9.02;;;819.60;2022.40;;;;;;4930673;29;20422;-79
2022/07/27 09:17:50;;;;;;;11.82;8.32;;;819.60;2022.40;;;;;;4930729;29;20032;-79
2022/07/27 09:20:18;;;;;;;11.10;8.05;;;819.60;2022.40;;;;;;4931274;29;20087;-79
2022/07/27 09:22:51;;;;;;;10.35;7.88;;;819.90;1971.20;;;;;;4930157;29;20039;-80
2022/07/27 09:25:22;;;;;;;9.68;8.20;;;819.80;1996.80;;;;;;4915199;29;20024;-78
2022/07/27 09:27:52;;;;;;;12.67;8.20;;;819.90;2022.40;;;;;;4916440;29;20028;-80
2022/07/27 09:30:20;;;;;;;11.02;8.10;;;820.10;1996.80;;;;;;4931119;29;20031;-81
2022/07/27 09:32:55;;;;;;;10.30;9.05;;;844.90;1996.80;;;;;;4916047;29;20112;-81
2022/07/27 09:35:28;;;;;;;10.98;8.30;;;;;;;;;;4925941;29;20485;-81
2022/07/27 09:37:56;;;;;;;14.13;10.80;;;;;;;;;;4914844;29;20028;-81
2022/07/27 09:40:23;;;;;;;9.02;7.93;;;;;;;;;;4915079;29;20024;-81
2022/07/27 09:43:09;;;;;;;10.88;8.60;;;;;;;;;;4914942;29;20035;-79
2022/07/27 09:45:37;;;;;;;14.90;12.93;;;;;;;;;;4914013;29;20040;-79
2022/07/27 09:48:32;;;;;;;9.77;8.65;;;844.80;1945.60;;;;;;4916244;29;20020;-79
2022/07/27 09:51:00;;;;;;;10.00;8.23;;;844.90;1971.20;;;;;;4929616;29;20095;-79
2022/07/27 09:53:31;;;;;;;10.82;8.93;;;845.10;1945.60;;;;;;4934577;29;20135;-80
2022/07/27 09:56:00;;;;;;;11.33;10.20;;;845.50;1945.60;;;;;;4934317;29;20398;-80
2022/07/27 09:58:54;;;;;;;9.43;8.00;;;845.40;1920.00;;;;;;4919429;29;20411;-80
2022/07/27 10:01:28;;;;;;;9.75;8.75;;;870.50;1920.00;;;;;;4934589;29;20526;-79
2022/07/27 10:04:00;;;;;;;11.05;7.90;;;870.60;1894.40;;;;;;4934472;29;20032;-79
2022/07/27 10:06:26;;;;;;;;;;;870.50;1894.40;;;;;;4934836;29;20397;-79
2022/07/27 10:08:54;;;;;;;9.35;8.38;;;870.70;1894.40;;;;;;4934339;29;19958;-79
2022/07/27 10:11:21;;;;;;;9.90;8.05;;;870.70;1868.80;;;;;;4933888;29;20035;-78
2022/07/27 10:13:48;;;;;;;10.30;9.07;;;845.60;1894.40;;;;;;4919742;29;20040;-79
2022/07/27 10:16:21;;;;;;;12.38;8.75;;;845.50;1920.00;;;;;;4934291;29;20028;-78
2022/07/27 10:19:05;;;;;;;9.93;8.52;;;845.50;1945.60;;;;;;4919054;29;20032;-78
2022/07/27 10:21:32;;;;;;;10.20;9.00;;;845.60;1971.20;;;;;;4918325;29;20036;-78
2022/07/27 10:24:23;;;;;;;9.25;8.20;;;845.30;1945.60;;;;;;4933195;29;20040;-78
2022/07/27 10:26:49;;;;;;;12.60;9.10;;;845.30;1920.00;;;;;;4926265;29;20059;-78
2022/07/27 10:29:17;;;;;;;9.60;8.70;;;845.20;1920.00;;;;;;4933199;29;20470;-77
2022/07/27 10:32:07;;;;;;;10.75;8.95;;;845.10;1945.60;;;;;;4933892;29;20163;-78
2022/07/27 10:34:37;;;;;;;11.93;8.10;;;845.30;1920.00;;;;;;4933894;29;20036;-77
2022/07/27 10:37:12;;;;;;;10.98;8.20;;;845.40;1920.00;;;;;;4933570;29;20028;-78
2022/07/27 10:39:49;;;;;;;11.43;8.98;;;845.40;1920.00;;;;;;4918249;29;20024;-79
2022/07/27 10:42:20;;;;;;;10.05;9.05;;;845.60;1920.00;;;;;;4919283;29;20091;-79
2022/07/27 10:45:08;;;;;;;8.43;7.65;;;870.60;1920.00;;;;;;4921677;29;20067;-78
2022/07/27 10:47:37;;;;;;;10.30;9.20;;;870.70;1868.80;;;;;;4936356;29;20023;-79
2022/07/27 10:50:15;;;;;;;11.73;8.55;;;845.60;1894.40;;;;;;4938099;29;20421;-79
2022/07/27 10:52:58;;;;;;;14.38;12.88;;;870.70;1894.40;;;;;;4919965;29;20027;-79
2022/07/27 10:55:34;;;;;;;14.60;12.18;;;870.60;1894.40;;;;;;4936528;29;20035;-79
2022/07/27 10:58:08;;;;;;;11.88;10.43;;;870.50;1894.40;;;;;;4920801;29;20046;-78
2022/07/27 11:00:49;;;;;;;11.55;9.88;;;870.60;1894.40;;;;;;4937259;29;20103;-78
2022/07/27 11:03:25;;;;;;;14.18;8.88;;;870.60;1868.80;;;;;;4936698;29;20500;-78
2022/07/27 11:05:58;;;;;;;9.63;8.63;;;845.40;1894.40;;;;;;4937591;29;20027;-79
2022/07/27 11:08:29;;;;;;;10.82;8.65;;;845.40;1894.40;;;;;;4935850;29;20032;-80
2022/07/27 11:10:55;;;;;;;9.60;8.50;;;845.40;1920.00;;;;;;4936430;29;20024;-78
2022/07/27 11:13:23;;;;;;;14.30;8.20;;;845.40;1920.00;;;;;;4936195;29;20044;-79
2022/07/27 11:15:53;;;;;;;10.05;8.23;;;845.40;1920.00;;;;;;4937204;29;20020;-78
2022/07/27 11:18:28;;;;;;;10.50;9.32;;;845.40;1920.00;;;;;;4936185;29;20032;-79
2022/07/27 11:21:13;;;;;;;9.77;7.72;;;845.40;1920.00;;;;;;4937771;29;20067;-80
2022/07/27 11:23:40;;;;;;;10.93;8.63;;;845.40;1945.60;;;;;;4919795;29;20095;-79
2022/07/27 11:26:06;;;;;;;12.10;8.68;;;845.40;1920.00;;;;;;4935954;29;20046;-78
2022/07/27 11:28:35;;;;;;;10.90;8.32;;;845.40;1920.00;;;;;;4920237;29;20052;-80
2022/07/27 11:31:01;;;;;;;11.57;9.30;;;845.40;1945.60;;;;;;4936849;29;20028;-78
2022/07/27 11:33:27;;;;;;;10.48;8.77;;;845.20;1945.60;;;;;;4935267;29;20056;-79
2022/07/27 11:35:55;;;;;;;8.93;7.97;;;845.00;1920.00;;;;;;4935595;29;20038;-79
2022/07/27 11:38:21;;;;;;;10.15;8.65;;;845.10;1945.60;;;;;;4935606;29;20470;-79
2022/07/27 11:40:50;;;;;;;13.57;10.48;;;845.10;1945.60;;;;;;4935838;29;20032;-78
2022/07/27 11:43:36;;;;;;;14.27;8.27;;;845.10;1920.00;;;;;;4936471;29;20047;-79
2022/07/27 11:46:23;;;;;;;16.30;8.90;;;845.30;1920.00;;;;;;4919633;29;20410;-79
2022/07/27 11:49:12;;;;;;;9.57;8.68;;;845.30;1945.60;;;;;;4935814;29;20035;-77
2022/07/27 11:51:40;;;;;;;11.77;9.20;;;845.40;1920.00;;;;;;4918736;29;20036;-78
2022/07/27 11:54:23;;;;;;;14.07;8.55;;;845.20;1920.00;;;;;;4935550;29;20157;-78
2022/07/27 11:56:52;;;;;;;11.52;9.63;;;844.90;1945.60;;;;;;4936346;29;20063;-78
2022/07/27 11:59:24;;;;;;;13.68;9.43;;;845.00;1945.60;;;;;;4936818;29;20024;-80
2022/07/27 12:01:55;;;;;;;11.80;8.70;;;844.90;1971.20;;;;;;4935568;29;20031;-78
2022/07/27 12:04:28;;;;;;;9.88;8.82;;;844.90;1971.20;;;;;;4935490;29;20099;-79
2022/07/27 12:06:58;;;;;;;11.45;9.50;;;844.90;1971.20;;;;;;4935638;29;20039;-80
2022/07/27 12:09:24;;;;;;;11.05;9.88;;;844.90;1996.80;;;;;;4928780;29;20042;-80
2022/07/27 12:12:14;;;;;;;12.60;8.20;;;844.80;1971.20;;;;;;4957833;28;20032;-78
2022/07/27 12:14:42;;;;;;;10.95;9.85;;;845.30;1945.60;;;;;;4931190;29;20047;-79
2022/07/27 12:17:35;;;;;;;10.82;9.27;;;870.50;1920.00;;;;;;4938456;29;20102;-79
2022/07/27 12:20:13;;;;;;;9.85;8.85;;;871.20;1920.00;;;;;;4935491;29;20036;-80
2022/07/27 12:22:53;;;;;;;13.13;10.27;;;896.20;1843.20;;;;;;4935238;29;20031;-80
2022/07/27 12:25:22;;;;;;;9.98;8.20;;;896.90;1792.00;;;;;;4934942;29;20032;-79
2022/07/27 12:28:04;;;;;;;11.63;8.32;;;896.80;1792.00;;;;;;4919341;29;20086;-80
2022/07/27 12:30:34;;;;;;;9.18;8.25;;;921.80;1817.60;;;;;;4919286;29;20493;-79
2022/07/27 12:33:02;;;;;;;12.38;9.98;;;922.00;1792.00;;;;;;4919290;29;20059;-84
2022/07/27 12:35:32;;;;;;;9.23;8.32;;;922.10;1740.80;;;;;;4935173;29;20039;-80
2022/07/27 12:38:04;;;;;;;11.23;8.63;;;922.40;1740.80;;;;;;4934356;29;20057;-79
2022/07/27 12:40:31;;;;;;;10.35;8.60;;;947.20;1740.80;;;;;;4935044;29;20409;-79
2022/07/27 12:43:02;;;;;;;9.02;7.80;;;922.50;1715.20;;;;;;4934999;29;20028;-81
2022/07/27 12:45:35;;;;;;;9.07;7.70;;;947.20;1689.60;;;;;;4934517;29;20056;-78
2022/07/27 12:48:10;;;;;;;11.25;8.02;;;947.20;1689.60;;;;;;4919221;29;20498;-79
2022/07/27 12:50:37;;;;;;;12.32;8.55;;;947.30;1689.60;;;;;;4934869;29;20540;-80
2022/07/27 12:53:03;;;;;;;12.63;8.18;;;947.50;1689.60;;;;;;4934571;29;20035;-79
2022/07/27 12:55:29;;;;;;;8.80;7.85;;;947.80;1638.40;;;;;;4934884;29;20122;-81
2022/07/27 12:57:55;;;;;;;10.93;7.72;;;947.40;1638.40;;;;;;4934946;29;20143;-79
2022/07/27 13:00:23;;;;;;;11.63;7.72;;;947.30;1638.40;;;;;;4934879;29;20574;-82
2022/07/27 13:02:49;;;;;;;12.60;7.78;;;947.50;1612.80;;;;;;4934305;29;20708;-79
2022/07/27 13:05:17;;;;;;;9.68;8.68;;;947.50;1612.80;;;;;;4936200;29;20028;-80
2022/07/27 13:07:46;;;;;;;9.10;7.68;;;947.30;1612.80;;;;;;4934476;29;20087;-80
2022/07/27 13:10:17;;;;;;;10.43;7.63;;;947.60;1612.80;;;;;;4934481;29;20127;-79
2022/07/27 13:12:43;;;;;;;8.63;7.40;;;947.80;1587.20;;;;;;4934847;29;20031;-81
2022/07/27 13:15:10;;;;;;;10.30;7.93;;;947.70;1612.80;;;;;;4934695;29;20385;-81
2022/07/27 13:17:36;;;;;;;9.55;8.27;;;947.70;1638.40;;;;;;4934469;29;20032;-80